sensor_id;sensor_type;location;lat;lon;timestamp;P1;durP1;ratioP1;P2;durP2;ratioP2
15155;SDS011;7678;50.058;8.306;2024-01-10T00:00:14;12.63;;;8.90;;
15155;SDS011;7678;50.058;8.306;2024-01-10T00:02:43;13.10;;;8.80;;
15155;SDS011;7678;50.058;8.306;2024-01-10T00:05:11;13.27;;;8.23;;
15155;SDS011;7678;50.058;8.306;2024-01-10T00:07:43;12.23;;;9.23;;
15155;SDS011;7678;50.058;8.306;2024-01-10T00:10:11;12.60;;;8.90;;
15155;SDS011;7678;50.058;8.306;2024-01-10T00:12:39;13.27;;;9.77;;
15155;SDS011;7678;50.058;8.306;2024-01-10T00:15:12;13.40;;;9.63;;
15155;SDS011;7678;50.058;8.306;2024-01-10T00:17:40;13.80;;;9.10;;
15155;SDS011;7678;50.058;8.306;2024-01-10T00:20:09;14.00;;;10.27;;
15155;SDS011;7678;50.058;8.306;2024-01-10T00:22:38;14.40;;;9.30;;
15155;SDS011;7678;50.058;8.306;2024-01-10T00:25:06;12.90;;;9.53;;
15155;SDS011;7678;50.058;8.306;2024-01-10T00:27:35;16.53;;;9.73;;
15155;SDS011;7678;50.058;8.306;2024-01-10T00:30:06;14.57;;;9.90;;
15155;SDS011;7678;50.058;8.306;2024-01-10T00:32:37;14.37;;;10.13;;
15155;SDS011;7678;50.058;8.306;2024-01-10T00:35:07;14.00;;;9.87;;
15155;SDS011;7678;50.058;8.306;2024-01-10T00:37:37;15.27;;;10.20;;
15155;SDS011;7678;50.058;8.306;2024-01-10T00:40:07;13.87;;;10.20;;
15155;SDS011;7678;50.058;8.306;2024-01-10T00:42:35;17.83;;;11.23;;
15155;SDS011;7678;50.058;8.306;2024-01-10T00:45:04;13.30;;;10.10;;
15155;SDS011;7678;50.058;8.306;2024-01-10T00:47:32;15.10;;;10.07;;
15155;SDS011;7678;50.058;8.306;2024-01-10T00:50:02;15.60;;;10.53;;
15155;SDS011;7678;50.058;8.306;2024-01-10T00:52:32;17.43;;;10.67;;
15155;SDS011;7678;50.058;8.306;2024-01-10T00:55:00;17.03;;;10.93;;
15155;SDS011;7678;50.058;8.306;2024-01-10T00:57:29;15.43;;;11.10;;
15155;SDS011;7678;50.058;8.306;2024-01-10T00:59:57;16.13;;;10.90;;
15155;SDS011;7678;50.058;8.306;2024-01-10T01:02:26;15.70;;;10.60;;
15155;SDS011;7678;50.058;8.306;2024-01-10T01:04:54;15.50;;;10.40;;
15155;SDS011;7678;50.058;8.306;2024-01-10T01:07:25;19.47;;;11.10;;
15155;SDS011;7678;50.058;8.306;2024-01-10T01:09:53;16.70;;;11.70;;
15155;SDS011;7678;50.058;8.306;2024-01-10T01:12:22;15.57;;;11.17;;
15155;SDS011;7678;50.058;8.306;2024-01-10T01:14:50;15.87;;;11.17;;
15155;SDS011;7678;50.058;8.306;2024-01-10T01:17:18;17.03;;;11.87;;
15155;SDS011;7678;50.058;8.306;2024-01-10T01:19:47;14.37;;;11.10;;
15155;SDS011;7678;50.058;8.306;2024-01-10T01:22:15;17.47;;;11.57;;
15155;SDS011;7678;50.058;8.306;2024-01-10T01:24:45;15.90;;;12.07;;
15155;SDS011;7678;50.058;8.306;2024-01-10T01:27:13;19.03;;;13.17;;
15155;SDS011;7678;50.058;8.306;2024-01-10T01:29:41;17.87;;;13.37;;
15155;SDS011;7678;50.058;8.306;2024-01-10T01:32:10;18.20;;;13.53;;
15155;SDS011;7678;50.058;8.306;2024-01-10T01:34:38;17.37;;;13.50;;
15155;SDS011;7678;50.058;8.306;2024-01-10T01:37:06;17.67;;;13.77;;
15155;SDS011;7678;50.058;8.306;2024-01-10T01:39:36;15.10;;;12.50;;
15155;SDS011;7678;50.058;8.306;2024-01-10T01:42:07;14.80;;;12.20;;
15155;SDS011;7678;50.058;8.306;2024-01-10T01:44:35;17.67;;;13.47;;
15155;SDS011;7678;50.058;8.306;2024-01-10T01:47:03;16.83;;;12.63;;
15155;SDS011;7678;50.058;8.306;2024-01-10T01:49:31;17.17;;;12.63;;
15155;SDS011;7678;50.058;8.306;2024-01-10T01:52:00;16.47;;;12.73;;
15155;SDS011;7678;50.058;8.306;2024-01-10T01:54:29;16.73;;;13.13;;
15155;SDS011;7678;50.058;8.306;2024-01-10T01:57:00;17.27;;;12.43;;
15155;SDS011;7678;50.058;8.306;2024-01-10T01:59:31;15.97;;;12.67;;
15155;SDS011;7678;50.058;8.306;2024-01-10T02:02:00;17.60;;;13.80;;
15155;SDS011;7678;50.058;8.306;2024-01-10T02:04:32;19.00;;;14.27;;
15155;SDS011;7678;50.058;8.306;2024-01-10T02:07:00;16.77;;;13.57;;
15155;SDS011;7678;50.058;8.306;2024-01-10T02:09:29;19.33;;;14.43;;
15155;SDS011;7678;50.058;8.306;2024-01-10T02:11:57;19.73;;;14.60;;
15155;SDS011;7678;50.058;8.306;2024-01-10T02:14:26;21.60;;;15.13;;
15155;SDS011;7678;50.058;8.306;2024-01-10T02:16:55;19.53;;;14.40;;
15155;SDS011;7678;50.058;8.306;2024-01-10T02:19:24;19.43;;;14.27;;
15155;SDS011;7678;50.058;8.306;2024-01-10T02:21:53;18.47;;;13.77;;
15155;SDS011;7678;50.058;8.306;2024-01-10T02:24:22;19.03;;;14.40;;
15155;SDS011;7678;50.058;8.306;2024-01-10T02:26:52;19.77;;;14.90;;
15155;SDS011;7678;50.058;8.306;2024-01-10T02:29:21;18.37;;;13.90;;
15155;SDS011;7678;50.058;8.306;2024-01-10T02:31:50;19.63;;;14.30;;
15155;SDS011;7678;50.058;8.306;2024-01-10T02:34:18;19.73;;;13.80;;
15155;SDS011;7678;50.058;8.306;2024-01-10T02:36:47;18.00;;;15.10;;
15155;SDS011;7678;50.058;8.306;2024-01-10T02:39:15;17.30;;;13.73;;
15155;SDS011;7678;50.058;8.306;2024-01-10T02:41:43;19.33;;;15.53;;
15155;SDS011;7678;50.058;8.306;2024-01-10T02:44:13;18.63;;;14.20;;
15155;SDS011;7678;50.058;8.306;2024-01-10T02:46:42;19.43;;;14.63;;
15155;SDS011;7678;50.058;8.306;2024-01-10T02:49:11;18.27;;;14.20;;
15155;SDS011;7678;50.058;8.306;2024-01-10T02:51:39;18.40;;;14.03;;
15155;SDS011;7678;50.058;8.306;2024-01-10T02:54:07;19.73;;;14.63;;
15155;SDS011;7678;50.058;8.306;2024-01-10T02:56:35;17.43;;;13.00;;
15155;SDS011;7678;50.058;8.306;2024-01-10T02:59:03;18.87;;;14.27;;
15155;SDS011;7678;50.058;8.306;2024-01-10T03:01:33;18.50;;;14.07;;
15155;SDS011;7678;50.058;8.306;2024-01-10T03:04:01;20.73;;;14.30;;
15155;SDS011;7678;50.058;8.306;2024-01-10T03:06:30;19.97;;;14.57;;
15155;SDS011;7678;50.058;8.306;2024-01-10T03:08:58;17.23;;;13.57;;
15155;SDS011;7678;50.058;8.306;2024-01-10T03:11:26;19.87;;;14.70;;
15155;SDS011;7678;50.058;8.306;2024-01-10T03:14:00;22.93;;;15.40;;
15155;SDS011;7678;50.058;8.306;2024-01-10T03:16:33;22.10;;;16.47;;
15155;SDS011;7678;50.058;8.306;2024-01-10T03:19:01;19.67;;;14.53;;
15155;SDS011;7678;50.058;8.306;2024-01-10T03:21:30;20.07;;;14.67;;
15155;SDS011;7678;50.058;8.306;2024-01-10T03:23:59;20.43;;;15.17;;
15155;SDS011;7678;50.058;8.306;2024-01-10T03:26:28;19.97;;;15.23;;
15155;SDS011;7678;50.058;8.306;2024-01-10T03:28:57;20.80;;;15.80;;
15155;SDS011;7678;50.058;8.306;2024-01-10T03:31:26;19.70;;;15.90;;
15155;SDS011;7678;50.058;8.306;2024-01-10T03:33:56;20.23;;;14.63;;
15155;SDS011;7678;50.058;8.306;2024-01-10T03:36:25;17.17;;;14.30;;
15155;SDS011;7678;50.058;8.306;2024-01-10T03:38:53;20.23;;;15.70;;
15155;SDS011;7678;50.058;8.306;2024-01-10T03:41:22;21.00;;;15.70;;
15155;SDS011;7678;50.058;8.306;2024-01-10T03:43:51;20.10;;;15.20;;
15155;SDS011;7678;50.058;8.306;2024-01-10T03:46:19;21.23;;;15.67;;
15155;SDS011;7678;50.058;8.306;2024-01-10T03:48:47;20.23;;;15.53;;
15155;SDS011;7678;50.058;8.306;2024-01-10T03:51:17;18.20;;;14.90;;
15155;SDS011;7678;50.058;8.306;2024-01-10T03:53:46;19.57;;;15.70;;
15155;SDS011;7678;50.058;8.306;2024-01-10T03:56:15;20.67;;;15.60;;
15155;SDS011;7678;50.058;8.306;2024-01-10T03:58:44;20.87;;;16.33;;
15155;SDS011;7678;50.058;8.306;2024-01-10T04:01:15;23.33;;;17.17;;
15155;SDS011;7678;50.058;8.306;2024-01-10T04:03:43;20.07;;;16.83;;
15155;SDS011;7678;50.058;8.306;2024-01-10T04:06:13;23.73;;;17.30;;
15155;SDS011;7678;50.058;8.306;2024-01-10T04:08:43;23.47;;;16.53;;
15155;SDS011;7678;50.058;8.306;2024-01-10T04:11:11;23.37;;;17.50;;
15155;SDS011;7678;50.058;8.306;2024-01-10T04:13:39;20.33;;;16.10;;
15155;SDS011;7678;50.058;8.306;2024-01-10T04:16:07;21.10;;;16.53;;
15155;SDS011;7678;50.058;8.306;2024-01-10T04:18:36;22.47;;;17.00;;
15155;SDS011;7678;50.058;8.306;2024-01-10T04:21:04;22.97;;;17.60;;
15155;SDS011;7678;50.058;8.306;2024-01-10T04:23:33;24.10;;;17.13;;
15155;SDS011;7678;50.058;8.306;2024-01-10T04:26:03;24.80;;;17.73;;
15155;SDS011;7678;50.058;8.306;2024-01-10T04:28:32;24.53;;;17.53;;
15155;SDS011;7678;50.058;8.306;2024-01-10T04:31:00;21.67;;;16.87;;
15155;SDS011;7678;50.058;8.306;2024-01-10T04:33:28;20.73;;;16.07;;
15155;SDS011;7678;50.058;8.306;2024-01-10T04:35:57;19.57;;;15.70;;
15155;SDS011;7678;50.058;8.306;2024-01-10T04:38:25;17.40;;;14.07;;
15155;SDS011;7678;50.058;8.306;2024-01-10T04:40:53;18.50;;;14.60;;
15155;SDS011;7678;50.058;8.306;2024-01-10T04:43:24;18.70;;;14.07;;
15155;SDS011;7678;50.058;8.306;2024-01-10T04:45:52;18.37;;;13.47;;
15155;SDS011;7678;50.058;8.306;2024-01-10T04:48:20;18.67;;;14.27;;
15155;SDS011;7678;50.058;8.306;2024-01-10T04:50:49;20.17;;;14.27;;
15155;SDS011;7678;50.058;8.306;2024-01-10T04:53:17;18.70;;;14.17;;
15155;SDS011;7678;50.058;8.306;2024-01-10T04:55:45;17.80;;;13.67;;
15155;SDS011;7678;50.058;8.306;2024-01-10T04:58:17;17.63;;;13.07;;
15155;SDS011;7678;50.058;8.306;2024-01-10T05:00:47;17.53;;;13.50;;
15155;SDS011;7678;50.058;8.306;2024-01-10T05:03:15;15.57;;;12.13;;
15155;SDS011;7678;50.058;8.306;2024-01-10T05:05:44;18.50;;;13.50;;
15155;SDS011;7678;50.058;8.306;2024-01-10T05:08:12;18.13;;;12.47;;
15155;SDS011;7678;50.058;8.306;2024-01-10T05:10:40;18.57;;;13.60;;
15155;SDS011;7678;50.058;8.306;2024-01-10T05:13:09;15.27;;;12.50;;
15155;SDS011;7678;50.058;8.306;2024-01-10T05:15:37;16.43;;;12.90;;
15155;SDS011;7678;50.058;8.306;2024-01-10T05:18:07;17.80;;;13.27;;
15155;SDS011;7678;50.058;8.306;2024-01-10T05:20:37;18.23;;;13.37;;
15155;SDS011;7678;50.058;8.306;2024-01-10T05:23:06;17.33;;;13.20;;
15155;SDS011;7678;50.058;8.306;2024-01-10T05:25:34;17.37;;;12.67;;
15155;SDS011;7678;50.058;8.306;2024-01-10T05:28:02;18.93;;;13.23;;
15155;SDS011;7678;50.058;8.306;2024-01-10T05:30:31;19.03;;;13.60;;
15155;SDS011;7678;50.058;8.306;2024-01-10T05:33:00;19.20;;;13.30;;
15155;SDS011;7678;50.058;8.306;2024-01-10T05:35:30;19.00;;;13.23;;
15155;SDS011;7678;50.058;8.306;2024-01-10T05:37:58;16.10;;;11.87;;
15155;SDS011;7678;50.058;8.306;2024-01-10T05:40:29;17.63;;;12.70;;
15155;SDS011;7678;50.058;8.306;2024-01-10T05:42:58;19.13;;;13.50;;
15155;SDS011;7678;50.058;8.306;2024-01-10T05:45:26;18.50;;;12.90;;
15155;SDS011;7678;50.058;8.306;2024-01-10T05:47:55;16.33;;;12.10;;
15155;SDS011;7678;50.058;8.306;2024-01-10T05:50:24;17.13;;;12.30;;
15155;SDS011;7678;50.058;8.306;2024-01-10T05:52:54;18.67;;;12.67;;
15155;SDS011;7678;50.058;8.306;2024-01-10T05:55:22;21.00;;;13.03;;
15155;SDS011;7678;50.058;8.306;2024-01-10T05:57:51;19.67;;;13.60;;
15155;SDS011;7678;50.058;8.306;2024-01-10T06:00:21;18.60;;;13.40;;
15155;SDS011;7678;50.058;8.306;2024-01-10T06:02:49;17.83;;;13.27;;
15155;SDS011;7678;50.058;8.306;2024-01-10T06:05:17;16.73;;;12.77;;
15155;SDS011;7678;50.058;8.306;2024-01-10T06:07:46;18.00;;;13.43;;
15155;SDS011;7678;50.058;8.306;2024-01-10T06:10:16;16.80;;;12.60;;
15155;SDS011;7678;50.058;8.306;2024-01-10T06:12:44;18.47;;;13.27;;
15155;SDS011;7678;50.058;8.306;2024-01-10T06:15:12;16.70;;;12.90;;
15155;SDS011;7678;50.058;8.306;2024-01-10T06:17:41;18.23;;;13.00;;
15155;SDS011;7678;50.058;8.306;2024-01-10T06:20:09;16.80;;;12.70;;
15155;SDS011;7678;50.058;8.306;2024-01-10T06:22:38;17.23;;;13.10;;
15155;SDS011;7678;50.058;8.306;2024-01-10T06:25:08;17.57;;;13.40;;
15155;SDS011;7678;50.058;8.306;2024-01-10T06:27:37;16.87;;;13.07;;
15155;SDS011;7678;50.058;8.306;2024-01-10T06:30:07;18.07;;;12.53;;
15155;SDS011;7678;50.058;8.306;2024-01-10T06:32:36;16.97;;;12.90;;
15155;SDS011;7678;50.058;8.306;2024-01-10T06:35:05;17.23;;;13.33;;
15155;SDS011;7678;50.058;8.306;2024-01-10T06:37:35;17.73;;;13.40;;
15155;SDS011;7678;50.058;8.306;2024-01-10T06:40:06;19.47;;;13.40;;
15155;SDS011;7678;50.058;8.306;2024-01-10T06:42:35;19.90;;;13.70;;
15155;SDS011;7678;50.058;8.306;2024-01-10T06:45:06;18.50;;;12.93;;
15155;SDS011;7678;50.058;8.306;2024-01-10T06:47:36;17.83;;;13.60;;
15155;SDS011;7678;50.058;8.306;2024-01-10T06:50:06;16.60;;;13.13;;
15155;SDS011;7678;50.058;8.306;2024-01-10T06:52:35;17.90;;;13.50;;
15155;SDS011;7678;50.058;8.306;2024-01-10T06:55:04;15.97;;;12.30;;
15155;SDS011;7678;50.058;8.306;2024-01-10T06:57:34;19.47;;;12.40;;
15155;SDS011;7678;50.058;8.306;2024-01-10T07:00:04;17.20;;;13.73;;
15155;SDS011;7678;50.058;8.306;2024-01-10T07:02:37;18.80;;;13.63;;
15155;SDS011;7678;50.058;8.306;2024-01-10T07:05:07;18.63;;;13.63;;
15155;SDS011;7678;50.058;8.306;2024-01-10T07:07:36;18.00;;;13.70;;
15155;SDS011;7678;50.058;8.306;2024-01-10T07:10:05;15.77;;;12.53;;
15155;SDS011;7678;50.058;8.306;2024-01-10T07:12:33;16.87;;;12.60;;
15155;SDS011;7678;50.058;8.306;2024-01-10T07:15:02;18.87;;;13.57;;
15155;SDS011;7678;50.058;8.306;2024-01-10T07:17:32;20.53;;;14.37;;
15155;SDS011;7678;50.058;8.306;2024-01-10T07:20:01;21.57;;;13.57;;
15155;SDS011;7678;50.058;8.306;2024-01-10T07:22:31;17.33;;;13.97;;
15155;SDS011;7678;50.058;8.306;2024-01-10T07:25:01;20.17;;;13.93;;
15155;SDS011;7678;50.058;8.306;2024-01-10T07:27:32;20.07;;;13.37;;
15155;SDS011;7678;50.058;8.306;2024-01-10T07:30:00;18.40;;;14.00;;
15155;SDS011;7678;50.058;8.306;2024-01-10T07:32:29;18.93;;;14.17;;
15155;SDS011;7678;50.058;8.306;2024-01-10T07:34:58;17.80;;;14.33;;
15155;SDS011;7678;50.058;8.306;2024-01-10T07:37:27;17.60;;;13.03;;
15155;SDS011;7678;50.058;8.306;2024-01-10T07:39:56;19.47;;;15.30;;
15155;SDS011;7678;50.058;8.306;2024-01-10T07:42:26;19.27;;;13.80;;
15155;SDS011;7678;50.058;8.306;2024-01-10T07:44:56;19.07;;;14.80;;
15155;SDS011;7678;50.058;8.306;2024-01-10T07:47:24;19.67;;;13.77;;
15155;SDS011;7678;50.058;8.306;2024-01-10T07:49:53;19.03;;;13.87;;
15155;SDS011;7678;50.058;8.306;2024-01-10T07:52:24;21.20;;;14.90;;
15155;SDS011;7678;50.058;8.306;2024-01-10T07:54:53;18.73;;;13.77;;
15155;SDS011;7678;50.058;8.306;2024-01-10T07:57:22;22.87;;;15.60;;
15155;SDS011;7678;50.058;8.306;2024-01-10T07:59:51;20.40;;;14.20;;
15155;SDS011;7678;50.058;8.306;2024-01-10T08:02:20;18.17;;;13.53;;
15155;SDS011;7678;50.058;8.306;2024-01-10T08:04:49;20.27;;;14.83;;
15155;SDS011;7678;50.058;8.306;2024-01-10T08:07:19;24.30;;;15.63;;
15155;SDS011;7678;50.058;8.306;2024-01-10T08:09:49;21.60;;;15.97;;
15155;SDS011;7678;50.058;8.306;2024-01-10T08:12:18;20.37;;;15.00;;
15155;SDS011;7678;50.058;8.306;2024-01-10T08:14:49;21.43;;;14.73;;
15155;SDS011;7678;50.058;8.306;2024-01-10T08:17:18;22.90;;;14.67;;
15155;SDS011;7678;50.058;8.306;2024-01-10T08:19:47;21.23;;;14.10;;
15155;SDS011;7678;50.058;8.306;2024-01-10T08:22:16;19.67;;;14.17;;
15155;SDS011;7678;50.058;8.306;2024-01-10T08:24:46;19.97;;;13.63;;
15155;SDS011;7678;50.058;8.306;2024-01-10T08:27:16;21.47;;;14.33;;
15155;SDS011;7678;50.058;8.306;2024-01-10T08:29:44;21.93;;;15.00;;
15155;SDS011;7678;50.058;8.306;2024-01-10T08:32:14;22.60;;;15.03;;
15155;SDS011;7678;50.058;8.306;2024-01-10T08:34:44;23.63;;;14.77;;
15155;SDS011;7678;50.058;8.306;2024-01-10T08:37:12;21.57;;;14.33;;
15155;SDS011;7678;50.058;8.306;2024-01-10T08:39:43;24.03;;;14.47;;
15155;SDS011;7678;50.058;8.306;2024-01-10T08:42:14;19.63;;;13.37;;
15155;SDS011;7678;50.058;8.306;2024-01-10T08:44:44;23.53;;;15.43;;
15155;SDS011;7678;50.058;8.306;2024-01-10T08:47:19;24.17;;;14.33;;
15155;SDS011;7678;50.058;8.306;2024-01-10T08:49:48;22.67;;;13.83;;
15155;SDS011;7678;50.058;8.306;2024-01-10T08:52:17;20.43;;;14.13;;
15155;SDS011;7678;50.058;8.306;2024-01-10T08:54:46;22.57;;;13.77;;
15155;SDS011;7678;50.058;8.306;2024-01-10T08:57:16;23.47;;;14.93;;
15155;SDS011;7678;50.058;8.306;2024-01-10T08:59:45;22.43;;;14.13;;
15155;SDS011;7678;50.058;8.306;2024-01-10T09:02:14;24.33;;;14.80;;
15155;SDS011;7678;50.058;8.306;2024-01-10T09:04:42;25.83;;;14.57;;
15155;SDS011;7678;50.058;8.306;2024-01-10T09:07:12;22.97;;;14.47;;
15155;SDS011;7678;50.058;8.306;2024-01-10T09:09:40;24.50;;;14.83;;
15155;SDS011;7678;50.058;8.306;2024-01-10T09:12:08;24.03;;;14.97;;
15155;SDS011;7678;50.058;8.306;2024-01-10T09:14:38;20.17;;;13.07;;
15155;SDS011;7678;50.058;8.306;2024-01-10T09:17:07;20.30;;;13.97;;
15155;SDS011;7678;50.058;8.306;2024-01-10T09:19:35;21.30;;;13.97;;
15155;SDS011;7678;50.058;8.306;2024-01-10T09:22:03;18.53;;;13.20;;
15155;SDS011;7678;50.058;8.306;2024-01-10T09:24:33;22.63;;;14.30;;
15155;SDS011;7678;50.058;8.306;2024-01-10T09:27:02;22.07;;;13.53;;
15155;SDS011;7678;50.058;8.306;2024-01-10T09:29:30;21.77;;;13.27;;
15155;SDS011;7678;50.058;8.306;2024-01-10T09:32:00;21.30;;;13.40;;
15155;SDS011;7678;50.058;8.306;2024-01-10T09:34:28;21.17;;;13.47;;
15155;SDS011;7678;50.058;8.306;2024-01-10T09:36:58;22.97;;;14.00;;
15155;SDS011;7678;50.058;8.306;2024-01-10T09:39:28;23.10;;;13.60;;
15155;SDS011;7678;50.058;8.306;2024-01-10T09:41:57;21.60;;;13.93;;
15155;SDS011;7678;50.058;8.306;2024-01-10T09:44:28;22.70;;;14.13;;
15155;SDS011;7678;50.058;8.306;2024-01-10T09:46:57;24.37;;;13.43;;
15155;SDS011;7678;50.058;8.306;2024-01-10T09:49:27;20.43;;;13.77;;
15155;SDS011;7678;50.058;8.306;2024-01-10T09:51:57;22.90;;;16.00;;
15155;SDS011;7678;50.058;8.306;2024-01-10T09:54:26;23.07;;;14.00;;
15155;SDS011;7678;50.058;8.306;2024-01-10T09:56:58;23.63;;;13.77;;
15155;SDS011;7678;50.058;8.306;2024-01-10T09:59:26;22.17;;;13.80;;
15155;SDS011;7678;50.058;8.306;2024-01-10T10:01:54;25.40;;;16.07;;
15155;SDS011;7678;50.058;8.306;2024-01-10T10:04:25;25.40;;;14.57;;
15155;SDS011;7678;50.058;8.306;2024-01-10T10:07:00;22.40;;;14.77;;
15155;SDS011;7678;50.058;8.306;2024-01-10T10:09:29;23.43;;;13.63;;
15155;SDS011;7678;50.058;8.306;2024-01-10T10:11:58;23.43;;;14.20;;
15155;SDS011;7678;50.058;8.306;2024-01-10T10:14:28;22.27;;;15.07;;
15155;SDS011;7678;50.058;8.306;2024-01-10T10:17:06;19.77;;;13.40;;
15155;SDS011;7678;50.058;8.306;2024-01-10T10:19:43;20.97;;;14.03;;
15155;SDS011;7678;50.058;8.306;2024-01-10T10:22:12;25.47;;;15.87;;
15155;SDS011;7678;50.058;8.306;2024-01-10T10:24:40;25.30;;;14.77;;
15155;SDS011;7678;50.058;8.306;2024-01-10T10:27:11;21.07;;;13.63;;
15155;SDS011;7678;50.058;8.306;2024-01-10T10:29:41;24.50;;;14.97;;
15155;SDS011;7678;50.058;8.306;2024-01-10T10:32:13;22.43;;;14.20;;
15155;SDS011;7678;50.058;8.306;2024-01-10T10:34:46;20.87;;;13.47;;
15155;SDS011;7678;50.058;8.306;2024-01-10T10:37:15;23.27;;;14.83;;
15155;SDS011;7678;50.058;8.306;2024-01-10T10:39:44;23.67;;;13.83;;
15155;SDS011;7678;50.058;8.306;2024-01-10T10:42:12;26.00;;;15.03;;
15155;SDS011;7678;50.058;8.306;2024-01-10T10:44:42;23.47;;;15.07;;
15155;SDS011;7678;50.058;8.306;2024-01-10T10:47:12;23.93;;;15.17;;
15155;SDS011;7678;50.058;8.306;2024-01-10T10:49:44;23.43;;;14.30;;
15155;SDS011;7678;50.058;8.306;2024-01-10T10:52:20;21.00;;;13.53;;
15155;SDS011;7678;50.058;8.306;2024-01-10T10:54:52;22.97;;;14.20;;
15155;SDS011;7678;50.058;8.306;2024-01-10T10:57:24;25.67;;;15.17;;
15155;SDS011;7678;50.058;8.306;2024-01-10T10:59:53;28.43;;;15.40;;
15155;SDS011;7678;50.058;8.306;2024-01-10T11:02:25;25.53;;;15.60;;
15155;SDS011;7678;50.058;8.306;2024-01-10T11:04:58;25.17;;;14.37;;
15155;SDS011;7678;50.058;8.306;2024-01-10T11:07:30;24.10;;;14.67;;
15155;SDS011;7678;50.058;8.306;2024-01-10T11:09:58;27.07;;;15.37;;
15155;SDS011;7678;50.058;8.306;2024-01-10T11:12:34;26.03;;;14.47;;
15155;SDS011;7678;50.058;8.306;2024-01-10T11:15:19;23.73;;;15.17;;
15155;SDS011;7678;50.058;8.306;2024-01-10T11:18:02;26.40;;;14.87;;
15155;SDS011;7678;50.058;8.306;2024-01-10T11:20:47;22.07;;;14.40;;
15155;SDS011;7678;50.058;8.306;2024-01-10T11:23:38;23.43;;;14.33;;
15155;SDS011;7678;50.058;8.306;2024-01-10T11:26:11;24.13;;;15.00;;
15155;SDS011;7678;50.058;8.306;2024-01-10T11:28:43;22.60;;;14.20;;
15155;SDS011;7678;50.058;8.306;2024-01-10T11:31:13;23.97;;;15.30;;
15155;SDS011;7678;50.058;8.306;2024-01-10T11:33:42;22.97;;;14.53;;
15155;SDS011;7678;50.058;8.306;2024-01-10T11:36:13;23.50;;;13.97;;
15155;SDS011;7678;50.058;8.306;2024-01-10T11:38:45;22.83;;;14.80;;
15155;SDS011;7678;50.058;8.306;2024-01-10T11:41:21;22.70;;;14.27;;
15155;SDS011;7678;50.058;8.306;2024-01-10T11:46:54;20.47;;;13.07;;
15155;SDS011;7678;50.058;8.306;2024-01-10T11:49:24;22.47;;;13.37;;
15155;SDS011;7678;50.058;8.306;2024-01-10T11:51:55;23.30;;;13.63;;
15155;SDS011;7678;50.058;8.306;2024-01-10T11:54:37;21.77;;;13.17;;
15155;SDS011;7678;50.058;8.306;2024-01-10T11:57:07;23.07;;;13.23;;
15155;SDS011;7678;50.058;8.306;2024-01-10T11:59:42;20.83;;;13.13;;
15155;SDS011;7678;50.058;8.306;2024-01-10T12:02:14;20.57;;;12.67;;
15155;SDS011;7678;50.058;8.306;2024-01-10T12:04:43;21.60;;;13.57;;
15155;SDS011;7678;50.058;8.306;2024-01-10T12:07:16;21.63;;;13.47;;
15155;SDS011;7678;50.058;8.306;2024-01-10T12:09:46;20.60;;;12.97;;
15155;SDS011;7678;50.058;8.306;2024-01-10T12:12:15;20.90;;;12.63;;
15155;SDS011;7678;50.058;8.306;2024-01-10T12:14:44;18.63;;;11.73;;
15155;SDS011;7678;50.058;8.306;2024-01-10T12:17:13;22.37;;;13.17;;
15155;SDS011;7678;50.058;8.306;2024-01-10T12:19:41;21.97;;;13.67;;
15155;SDS011;7678;50.058;8.306;2024-01-10T12:22:13;19.57;;;12.17;;
15155;SDS011;7678;50.058;8.306;2024-01-10T12:24:45;21.00;;;12.73;;
15155;SDS011;7678;50.058;8.306;2024-01-10T12:27:17;21.73;;;13.73;;
15155;SDS011;7678;50.058;8.306;2024-01-10T12:29:50;26.37;;;17.70;;
15155;SDS011;7678;50.058;8.306;2024-01-10T12:32:20;27.80;;;16.63;;
15155;SDS011;7678;50.058;8.306;2024-01-10T12:34:54;24.43;;;15.67;;
15155;SDS011;7678;50.058;8.306;2024-01-10T12:37:26;24.23;;;15.90;;
15155;SDS011;7678;50.058;8.306;2024-01-10T12:39:56;25.03;;;14.60;;
15155;SDS011;7678;50.058;8.306;2024-01-10T12:42:24;23.33;;;15.00;;
15155;SDS011;7678;50.058;8.306;2024-01-10T12:44:53;25.20;;;17.30;;
15155;SDS011;7678;50.058;8.306;2024-01-10T12:47:21;23.27;;;13.47;;
15155;SDS011;7678;50.058;8.306;2024-01-10T12:49:51;27.97;;;16.73;;
15155;SDS011;7678;50.058;8.306;2024-01-10T12:52:21;27.73;;;14.80;;
15155;SDS011;7678;50.058;8.306;2024-01-10T12:54:53;25.30;;;16.23;;
15155;SDS011;7678;50.058;8.306;2024-01-10T13:00:18;27.00;;;15.80;;
15155;SDS011;7678;50.058;8.306;2024-01-10T13:02:47;23.33;;;14.30;;
15155;SDS011;7678;50.058;8.306;2024-01-10T13:05:15;26.47;;;13.83;;
15155;SDS011;7678;50.058;8.306;2024-01-10T13:07:46;25.00;;;16.00;;
15155;SDS011;7678;50.058;8.306;2024-01-10T13:10:14;26.47;;;18.30;;
15155;SDS011;7678;50.058;8.306;2024-01-10T13:12:43;20.67;;;13.67;;
15155;SDS011;7678;50.058;8.306;2024-01-10T13:15:12;27.25;;;18.05;;
15155;SDS011;7678;50.058;8.306;2024-01-10T13:17:42;26.45;;;17.17;;
15155;SDS011;7678;50.058;8.306;2024-01-10T13:20:12;24.13;;;15.23;;
15155;SDS011;7678;50.058;8.306;2024-01-10T13:22:41;19.73;;;12.87;;
15155;SDS011;7678;50.058;8.306;2024-01-10T13:25:12;23.60;;;13.93;;
15155;SDS011;7678;50.058;8.306;2024-01-10T13:27:42;24.87;;;14.93;;
15155;SDS011;7678;50.058;8.306;2024-01-10T13:30:10;20.00;;;12.65;;
15155;SDS011;7678;50.058;8.306;2024-01-10T13:32:43;21.70;;;13.03;;
15155;SDS011;7678;50.058;8.306;2024-01-10T13:35:11;21.07;;;13.47;;
15155;SDS011;7678;50.058;8.306;2024-01-10T13:37:40;21.93;;;13.47;;
15155;SDS011;7678;50.058;8.306;2024-01-10T13:40:11;21.43;;;14.33;;
15155;SDS011;7678;50.058;8.306;2024-01-10T13:42:40;25.50;;;14.27;;
15155;SDS011;7678;50.058;8.306;2024-01-10T13:45:09;24.13;;;13.87;;
15155;SDS011;7678;50.058;8.306;2024-01-10T13:47:39;21.27;;;14.40;;
15155;SDS011;7678;50.058;8.306;2024-01-10T13:50:21;23.67;;;14.77;;
15155;SDS011;7678;50.058;8.306;2024-01-10T13:52:51;21.97;;;13.70;;
15155;SDS011;7678;50.058;8.306;2024-01-10T13:55:20;21.00;;;13.30;;
15155;SDS011;7678;50.058;8.306;2024-01-10T13:57:52;23.30;;;14.30;;
15155;SDS011;7678;50.058;8.306;2024-01-10T14:00:23;22.37;;;13.13;;
15155;SDS011;7678;50.058;8.306;2024-01-10T14:02:53;22.17;;;12.73;;
15155;SDS011;7678;50.058;8.306;2024-01-10T14:05:26;23.35;;;14.77;;
15155;SDS011;7678;50.058;8.306;2024-01-10T14:07:55;24.03;;;14.93;;
15155;SDS011;7678;50.058;8.306;2024-01-10T14:10:25;21.63;;;13.37;;
15155;SDS011;7678;50.058;8.306;2024-01-10T14:12:57;24.30;;;13.50;;
15155;SDS011;7678;50.058;8.306;2024-01-10T14:15:26;22.10;;;13.70;;
15155;SDS011;7678;50.058;8.306;2024-01-10T14:18:05;23.03;;;13.87;;
15155;SDS011;7678;50.058;8.306;2024-01-10T14:20:35;23.07;;;14.00;;
15155;SDS011;7678;50.058;8.306;2024-01-10T14:23:07;22.97;;;14.70;;
15155;SDS011;7678;50.058;8.306;2024-01-10T14:25:37;20.70;;;13.80;;
15155;SDS011;7678;50.058;8.306;2024-01-10T14:28:06;21.40;;;13.70;;
15155;SDS011;7678;50.058;8.306;2024-01-10T14:30:35;21.33;;;13.53;;
15155;SDS011;7678;50.058;8.306;2024-01-10T14:33:06;18.93;;;13.30;;
15155;SDS011;7678;50.058;8.306;2024-01-10T14:35:35;23.80;;;14.67;;
15155;SDS011;7678;50.058;8.306;2024-01-10T14:38:04;21.20;;;14.33;;
15155;SDS011;7678;50.058;8.306;2024-01-10T14:40:34;20.63;;;13.30;;
15155;SDS011;7678;50.058;8.306;2024-01-10T14:43:03;22.20;;;14.52;;
15155;SDS011;7678;50.058;8.306;2024-01-10T14:45:32;21.13;;;13.23;;
15155;SDS011;7678;50.058;8.306;2024-01-10T14:48:06;22.60;;;13.20;;
15155;SDS011;7678;50.058;8.306;2024-01-10T14:50:35;20.57;;;12.87;;
15155;SDS011;7678;50.058;8.306;2024-01-10T14:53:07;22.00;;;13.17;;
15155;SDS011;7678;50.058;8.306;2024-01-10T14:55:35;19.83;;;13.23;;